Time;durP1;ratioP1;P1;durP2;ratioP2;P2;SDS_P1;SDS_P2;PMS_P1;PMS_P2;Temp;Humidity;BMP_temperature;BMP_pressure;BME280_temperature;BME280_humidity;BME280_pressure;Samples;Min_cycle;Max_cycle;Signal;HPM_P1;HPM_P2
2022/03/24 00:01:36;;;;;;;37.15;19.08;;;;;;;5.57;52.72;100256.31;5224939;28;20068;-67
2022/03/24 00:04:27;;;;;;;41.55;19.08;;;;;;;5.71;52.09;100258.19;5207083;28;20068;-66
2022/03/24 00:07:17;;;;;;;47.42;19.83;;;;;;;5.50;53.08;100250.53;5209998;28;20049;-66
2022/03/24 00:10:08;;;;;;;37.63;20.02;;;;;;;5.23;53.15;100220.38;5224678;28;20044;-67
2022/03/24 00:12:59;;;;;;;43.58;20.05;;;;;;;5.38;53.81;100246.75;5218247;28;20559;-66
2022/03/24 00:15:49;;;;;;;35.90;18.38;;;;;;;5.37;54.14;100241.56;5225130;28;20052;-67
2022/03/24 00:18:39;;;;;;;53.63;20.00;;;;;;;5.38;54.93;100245.91;5225440;28;20056;-66
2022/03/24 00:21:29;;;;;;;36.60;19.83;;;;;;;5.50;55.69;100254.94;5210026;28;20130;-66
2022/03/24 00:24:19;;;;;;;42.42;20.70;;;;;;;5.26;56.79;100249.16;5221813;28;20518;-66
2022/03/24 00:27:09;;;;;;;47.30;20.40;;;;;;;5.04;57.27;100239.75;5224939;28;20048;-67
2022/03/24 00:29:59;;;;;;;48.97;21.27;;;;;;;5.09;57.81;100235.09;5210050;28;20060;-67
2022/03/24 00:32:50;;;;;;;40.97;19.67;;;;;;;5.38;56.25;100256.41;5224873;28;20067;-67
2022/03/24 00:35:39;;;;;;;44.95;21.52;;;;;;;5.29;56.12;100256.88;5208770;28;20150;-66
2022/03/24 00:38:30;;;;;;;40.25;19.40;;;;;;;5.11;55.26;100264.78;5223134;28;20127;-67
2022/03/24 00:41:21;;;;;;;43.95;20.35;;;;;;;5.12;56.47;100257.75;5209142;28;20071;-66
2022/03/24 00:44:12;;;;;;;42.05;20.60;;;;;;;5.07;56.73;100252.75;5203856;28;20064;-66
2022/03/24 00:47:04;;;;;;;51.88;21.13;;;;;;;5.05;56.02;100235.34;5196510;28;20056;-67
2022/03/24 00:49:54;;;;;;;39.55;20.67;;;;;;;5.22;56.09;100239.72;5210415;28;20060;-67
2022/03/24 00:52:45;;;;;;;44.15;20.27;;;;;;;5.88;54.30;100237.06;5224805;28;20075;-66
2022/03/24 00:55:35;;;;;;;45.40;19.40;;;;;;;5.88;53.98;100235.28;5210296;28;20102;-67
2022/03/24 00:58:25;;;;;;;40.72;18.92;;;;;;;5.19;55.71;100225.78;5225088;28;20469;-66
2022/03/24 01:01:20;;;;;;;53.17;21.15;;;;;;;4.81;56.44;100213.78;5208967;28;20190;-66
2022/03/24 01:04:11;;;;;;;36.22;18.88;;;;;;;4.95;55.38;100229.69;5224316;28;20091;-66
2022/03/24 01:07:01;;;;;;;38.22;19.70;;;;;;;4.90;55.88;100231.69;5223034;28;20057;-66
2022/03/24 01:09:50;;;;;;;35.40;18.92;;;;;;;4.78;55.52;100232.34;5223408;28;20049;-66
2022/03/24 01:12:42;;;;;;;41.97;19.38;;;;;;;4.70;55.37;100220.44;5222786;28;20056;-66
2022/03/24 01:15:34;;;;;;;41.70;19.60;;;;;;;4.77;55.49;100223.59;5223899;28;20049;-66
2022/03/24 01:18:24;;;;;;;38.10;19.08;;;;;;;4.76;55.93;100226.28;5221049;28;20517;-66
2022/03/24 01:21:16;;;;;;;38.38;19.05;;;;;;;4.66;56.09;100224.13;5224128;28;20438;-66
2022/03/24 01:24:08;;;;;;;39.17;18.80;;;;;;;4.53;55.93;100212.53;5223910;28;20059;-66
2022/03/24 01:26:59;;;;;;;38.40;19.20;;;;;;;4.54;56.58;100216.03;5207481;28;20060;-66
2022/03/24 01:29:50;;;;;;;35.75;18.75;;;;;;;4.51;55.94;100216.16;5212759;28;20055;-66
2022/03/24 01:32:40;;;;;;;37.90;19.55;;;;;;;4.52;57.05;100213.44;5208900;28;20128;-66
2022/03/24 01:35:31;;;;;;;45.00;19.60;;;;;;;4.49;55.67;100210.97;5206613;28;20057;-66
2022/03/24 01:38:23;;;;;;;45.28;19.77;;;;;;;4.48;55.52;100206.66;5223623;28;20052;-66
2022/03/24 01:41:13;;;;;;;34.85;18.83;;;;;;;4.20;55.78;100202.72;5221905;28;20091;-66
2022/03/24 01:44:09;;;;;;;36.88;19.23;;;;;;;4.17;56.36;100205.53;5220346;28;20587;-66
2022/03/24 01:47:01;;;;;;;36.40;18.83;;;;;;;4.22;56.82;100206.16;5208787;28;20049;-66
2022/03/24 01:49:53;;;;;;;38.30;18.85;;;;;;;4.05;56.45;100205.25;5207326;28;20390;-66
2022/03/24 01:52:44;;;;;;;39.55;18.85;;;;;;;4.29;56.01;100200.59;5208549;28;20056;-66
2022/03/24 01:55:35;;;;;;;34.42;18.73;;;;;;;4.11;56.55;100208.44;5207977;28;20052;-66
2022/03/24 01:58:27;;;;;;;33.83;18.42;;;;;;;3.89;56.69;100192.84;5208408;28;20053;-67
2022/03/24 02:01:36;;;;;;;36.92;19.67;;;;;;;3.99;57.14;100203.75;5223256;28;20053;-65
2022/03/24 02:04:30;;;;;;;37.15;18.98;;;;;;;3.97;57.47;100211.72;5210283;28;20052;-65
2022/03/24 02:07:20;;;;;;;36.77;18.13;;;;;;;3.91;57.82;100201.50;5207022;28;20056;-65
2022/03/24 02:10:11;;;;;;;35.90;19.52;;;;;;;3.94;57.71;100208.38;5220774;28;20374;-65
2022/03/24 02:13:04;;;;;;;39.47;19.20;;;;;;;3.93;57.27;100207.53;5206359;28;20095;-66
2022/03/24 02:15:55;;;;;;;37.92;19.70;;;;;;;3.93;58.41;100193.56;5207114;28;20060;-66
2022/03/24 02:18:46;;;;;;;46.25;19.17;;;;;;;4.08;57.69;100202.50;5207926;28;20040;-66
2022/03/24 02:21:39;;;;;;;40.58;20.30;;;;;;;3.94;58.16;100196.13;5207871;28;20670;-67
2022/03/24 02:24:29;;;;;;;37.60;19.85;;;;;;;3.84;58.57;100200.09;5208741;28;20124;-67
2022/03/24 02:27:19;;;;;;;41.00;19.45;;;;;;;3.85;58.69;100196.56;5222756;28;20052;-66
2022/03/24 02:30:10;;;;;;;40.08;19.80;;;;;;;3.93;58.40;100189.16;5222854;28;20048;-68
2022/03/24 02:33:00;;;;;;;43.75;19.90;;;;;;;3.99;57.69;100193.28;5222720;28;20175;-67
2022/03/24 02:35:51;;;;;;;39.55;19.83;;;;;;;3.88;58.53;100203.44;5211931;28;20091;-67
2022/03/24 02:38:41;;;;;;;36.95;19.17;;;;;;;3.88;58.51;100206.06;5199542;28;20394;-66
2022/03/24 02:41:31;;;;;;;41.13;18.92;;;;;;;3.69;58.86;100195.56;5218727;28;20049;-66
2022/03/24 02:44:23;;;;;;;40.50;19.65;;;;;;;3.90;58.49;100198.94;5221922;28;20049;-66
2022/03/24 02:47:13;;;;;;;41.40;19.80;;;;;;;3.86;58.19;100200.88;5221221;28;20063;-66
2022/03/24 02:50:05;;;;;;;49.60;19.90;;;;;;;3.53;59.24;100200.66;5219373;28;20056;-66
2022/03/24 02:52:55;;;;;;;43.50;20.42;;;;;;;3.51;59.02;100203.34;5222910;28;20060;-66
2022/03/24 02:55:45;;;;;;;41.30;20.02;;;;;;;3.78;58.05;100204.78;5222315;28;20056;-66
2022/03/24 02:58:35;;;;;;;44.78;19.90;;;;;;;3.70;58.37;100205.13;5219523;28;20049;-65
2022/03/24 03:01:25;;;;;;;38.97;19.65;;;;;;;3.49;58.42;100202.56;5222202;28;20060;-65
2022/03/24 03:04:16;;;;;;;45.25;19.73;;;;;;;3.53;58.73;100201.50;5222178;28;20056;-65
2022/03/24 03:07:07;;;;;;;35.42;19.67;;;;;;;3.37;58.90;100199.63;5222308;28;20126;-66
2022/03/24 03:09:57;;;;;;;37.80;20.20;;;;;;;3.29;59.31;100213.09;5220997;28;20071;-65
2022/03/24 03:12:47;;;;;;;42.20;19.83;;;;;;;3.19;59.03;100210.03;5221563;28;20123;-65
2022/03/24 03:15:37;;;;;;;40.78;19.95;;;;;;;3.25;59.35;100209.75;5218078;28;20068;-65
2022/03/24 03:18:27;;;;;;;39.60;20.88;;;;;;;3.27;60.29;100205.28;5205395;28;20049;-65
2022/03/24 03:21:17;;;;;;;42.65;19.08;;;;;;;3.30;59.49;100204.31;5222259;28;20118;-66
2022/03/24 03:24:10;;;;;;;40.40;18.02;;;;;;;3.26;58.89;100208.84;5221894;28;20717;-66
2022/03/24 03:27:00;;;;;;;38.47;19.75;;;;;;;3.13;59.14;100197.19;5204540;28;20041;-66
2022/03/24 03:29:50;;;;;;;38.55;19.48;;;;;;;3.16;59.58;100211.94;5225358;28;20418;-66
2022/03/24 03:32:41;;;;;;;38.00;19.35;;;;;;;3.04;60.26;100208.91;5226100;28;20064;-65
2022/03/24 03:35:32;;;;;;;37.55;19.58;;;;;;;3.23;60.11;100218.59;5226044;28;20126;-66
2022/03/24 03:38:21;;;;;;;41.65;20.25;;;;;;;3.05;59.93;100194.06;5226117;28;20052;-65
2022/03/24 03:41:12;;;;;;;35.60;19.15;;;;;;;3.13;59.22;100199.81;5225850;28;20119;-66
2022/03/24 03:44:04;;;;;;;38.95;19.33;;;;;;;3.04;60.11;100214.16;5222656;28;20056;-66
2022/03/24 03:46:54;;;;;;;41.88;20.30;;;;;;;3.05;60.10;100220.25;5225016;28;20064;-66
2022/03/24 03:49:44;;;;;;;39.08;19.67;;;;;;;3.15;60.35;100221.56;5225772;28;20090;-66
2022/03/24 03:52:48;;;;;;;41.38;20.25;;;;;;;3.27;59.06;100226.25;5225877;28;20059;-66
2022/03/24 03:55:38;;;;;;;36.88;18.58;;;;;;;3.04;59.22;100222.00;5222769;28;20048;-66
2022/03/24 03:58:28;;;;;;;39.25;18.83;;;;;;;2.79;59.71;100222.22;5225880;28;20057;-66
2022/03/24 04:01:18;;;;;;;39.22;19.52;;;;;;;2.81;59.59;100206.44;5226140;28;20527;-66
2022/03/24 04:04:12;;;;;;;38.47;20.52;;;;;;;2.95;60.01;100224.19;5225140;28;20130;-66
2022/03/24 04:07:03;;;;;;;27.42;14.65;;;;;;;2.95;59.99;100227.66;5218847;28;20170;-67
2022/03/24 04:09:53;;;;;;;43.97;20.92;;;;;;;2.90;60.13;100228.78;5225494;28;20084;-66
2022/03/24 04:12:43;;;;;;;38.80;19.50;;;;;;;2.57;60.88;100222.25;5223601;28;20398;-67
2022/03/24 04:15:34;;;;;;;37.60;19.63;;;;;;;2.57;60.67;100221.41;5224541;28;20142;-66
2022/03/24 04:18:24;;;;;;;38.50;19.70;;;;;;;2.68;60.75;100221.84;5221309;28;20045;-66
2022/03/24 04:21:14;;;;;;;45.55;19.38;;;;;;;2.71;60.22;100226.91;5224048;28;20060;-66
2022/03/24 04:24:04;;;;;;;35.20;19.38;;;;;;;2.79;61.15;100222.22;5225007;28;20434;-66
2022/03/24 04:26:56;;;;;;;42.10;19.25;;;;;;;2.98;60.22;100226.66;5224790;28;20135;-65
2022/03/24 04:29:46;;;;;;;42.55;19.40;;;;;;;2.57;60.84;100229.25;5222773;28;20049;-66
2022/03/24 04:32:36;;;;;;;40.33;19.15;;;;;;;2.55;60.79;100225.84;5224826;28;20128;-66
2022/03/24 04:35:26;;;;;;;38.05;19.13;;;;;;;2.68;61.29;100227.06;5224915;28;20068;-66
2022/03/24 04:38:16;;;;;;;42.10;20.23;;;;;;;2.76;60.79;100224.97;5214597;28;20059;-66
2022/03/24 04:41:07;;;;;;;35.13;18.73;;;;;;;2.58;61.09;100230.94;5221158;28;20429;-66
2022/03/24 04:43:57;;;;;;;39.10;19.60;;;;;;;2.45;60.59;100237.59;5224071;28;20060;-66
2022/03/24 04:46:47;;;;;;;37.85;19.58;;;;;;;2.37;61.48;100235.31;5223911;28;20447;-67
2022/03/24 04:49:37;;;;;;;48.20;19.65;;;;;;;2.38;61.05;100242.22;5224506;28;20081;-67
2022/03/24 04:52:27;;;;;;;40.33;20.20;;;;;;;2.36;60.79;100236.22;5221442;28;20056;-66
2022/03/24 04:55:17;;;;;;;46.20;19.83;;;;;;;2.40;61.86;100231.72;5219753;28;20130;-66
2022/03/24 04:58:08;;;;;;;42.63;21.05;;;;;;;2.53;62.36;100232.94;5220567;28;20049;-67
2022/03/24 05:00:58;;;;;;;43.42;19.65;;;;;;;2.70;61.90;100234.84;5224472;28;20527;-66
2022/03/24 05:03:49;;;;;;;43.88;20.20;;;;;;;2.56;61.25;100231.03;5213302;28;20052;-66
2022/03/24 05:06:40;;;;;;;37.60;19.50;;;;;;;2.38;61.84;100238.78;5222738;28;20056;-66
2022/03/24 05:09:30;;;;;;;38.65;18.27;;;;;;;2.15;61.72;100237.06;5223749;28;20074;-65
2022/03/24 05:12:20;;;;;;;46.45;20.23;;;;;;;2.20;60.13;100246.44;5224185;28;20526;-66
2022/03/24 05:15:11;;;;;;;35.08;17.67;;;;;;;2.09;61.19;100248.63;5224063;28;20079;-66
2022/03/24 05:18:02;;;;;;;39.78;18.60;;;;;;;2.14;60.48;100251.06;5223014;28;20538;-67
2022/03/24 05:20:54;;;;;;;40.58;19.40;;;;;;;2.29;61.02;100247.84;5222580;28;20423;-69
2022/03/24 05:23:44;;;;;;;34.95;18.40;;;;;;;2.43;61.61;100248.16;5220777;28;20056;-66
2022/03/24 05:26:34;;;;;;;39.58;19.17;;;;;;;2.56;60.33;100254.59;5223267;28;20530;-65
2022/03/24 05:29:24;;;;;;;72.00;22.40;;;;;;;2.45;61.70;100254.19;5219586;28;20050;-66
2022/03/24 05:32:14;;;;;;;45.70;20.75;;;;;;;2.47;61.62;100254.97;5210216;28;20418;-66
2022/03/24 05:35:05;;;;;;;40.85;19.42;;;;;;;2.50;62.05;100264.47;5220630;28;20049;-66
2022/03/24 05:37:55;;;;;;;48.15;19.10;;;;;;;2.22;62.13;100252.47;5222463;28;20068;-67
2022/03/24 05:40:46;;;;;;;41.95;19.95;;;;;;;2.56;62.57;100261.59;5219667;28;20099;-66
2022/03/24 05:43:36;;;;;;;40.78;19.20;;;;;;;2.53;61.74;100259.09;5222076;28;20101;-67
2022/03/24 05:46:26;;;;;;;36.97;18.67;;;;;;;2.23;61.83;100261.19;5213677;28;20126;-65
2022/03/24 05:49:19;;;;;;;45.13;20.13;;;;;;;2.50;62.44;100259.22;5220803;28;20068;-66
2022/03/24 05:52:15;;;;;;;43.08;19.58;;;;;;;2.61;61.40;100256.16;5223318;28;20056;-67
2022/03/24 05:55:05;;;;;;;43.58;20.55;;;;;;;2.47;62.40;100269.81;5221445;28;20114;-67
2022/03/24 05:57:56;;;;;;;45.58;20.45;;;;;;;2.41;62.51;100264.81;5223181;28;20560;-68
2022/03/24 06:00:47;;;;;;;42.47;19.45;;;;;;;2.48;63.30;100267.13;5222847;28;20163;-67
2022/03/24 06:03:37;;;;;;;41.85;20.20;;;;;;;2.60;62.50;100252.69;5221472;28;20049;-70
2022/03/24 06:06:27;;;;;;;44.45;20.50;;;;;;;2.57;63.05;100263.28;5221648;28;20052;-67
2022/03/24 06:09:17;;;;;;;44.88;21.00;;;;;;;2.77;62.99;100268.56;5221214;28;20080;-67
2022/03/24 06:12:10;;;;;;;41.65;20.35;;;;;;;2.74;62.23;100265.22;5220147;28;20091;-67
2022/03/24 06:15:00;;;;;;;40.03;20.20;;;;;;;2.68;61.16;100253.25;5222030;28;20041;-67
2022/03/24 06:17:51;;;;;;;39.55;19.85;;;;;;;2.79;60.71;100273.75;5219205;28;20427;-68
2022/03/24 06:20:46;;;;;;;45.63;18.90;;;;;;;2.87;60.95;100262.94;5216273;28;20135;-70
2022/03/24 06:23:36;;;;;;;45.75;19.88;;;;;;;2.97;60.94;100269.50;5222818;28;20052;-69
2022/03/24 06:26:29;;;;;;;43.72;19.63;;;;;;;3.01;61.04;100266.72;5213529;28;20057;-69
2022/03/24 06:29:19;;;;;;;46.78;21.52;;;;;;;3.02;62.42;100271.03;5222448;28;20141;-68
2022/03/24 06:32:09;;;;;;;54.88;23.38;;;;;;;3.20;61.97;100279.88;5206201;28;20083;-68
2022/03/24 06:34:59;;;;;;;50.92;22.60;;;;;;;3.27;61.20;100268.19;5222084;28;20045;-69
2022/03/24 06:37:51;;;;;;;47.88;22.10;;;;;;;3.40;60.73;100270.28;5221754;28;20075;-69
2022/03/24 06:40:41;;;;;;;51.00;23.00;;;;;;;3.40;61.79;100278.16;5222484;28;20514;-68
2022/03/24 06:43:34;;;;;;;47.38;20.90;;;;;;;3.53;61.26;100279.31;5222200;28;20534;-68
2022/03/24 06:46:25;;;;;;;;;;;;;;;3.69;63.12;100276.88;5223110;28;20154;-69
2022/03/24 06:49:15;;;;;;;42.75;20.88;;;;;;;3.76;62.79;100279.13;5222906;28;19929;-68
2022/03/24 06:52:06;;;;;;;58.00;22.38;;;;;;;4.12;62.53;100277.53;5222544;28;20055;-68
2022/03/24 06:54:57;;;;;;;45.90;21.88;;;;;;;4.08;62.24;100266.34;5222737;28;20585;-68
2022/03/24 06:57:47;;;;;;;48.15;22.60;;;;;;;4.35;62.09;100279.94;5222599;28;20194;-68
2022/03/24 07:00:38;;;;;;;42.33;21.33;;;;;;;4.40;61.39;100277.06;5225010;28;20045;-67
2022/03/24 07:03:28;;;;;;;47.58;20.83;;;;;;;4.48;60.37;100269.69;5226383;28;20423;-66
2022/03/24 07:06:18;;;;;;;44.08;21.55;;;;;;;4.81;59.80;100284.75;5211435;28;20137;-66
2022/03/24 07:09:08;;;;;;;43.60;22.02;;;;;;;5.04;59.87;100280.97;5226985;28;20522;-66
2022/03/24 07:11:58;;;;;;;55.15;21.25;;;;;;;5.25;58.60;100279.88;5226608;28;20049;-67
2022/03/24 07:14:48;;;;;;;46.90;22.55;;;;;;;5.38;59.23;100277.47;5226554;28;20052;-67
2022/03/24 07:17:38;;;;;;;59.58;22.58;;;;;;;5.47;59.60;100282.25;5226458;28;20063;-66
2022/03/24 07:20:29;;;;;;;52.33;23.48;;;;;;;5.73;59.67;100280.00;5225330;28;20102;-66
2022/03/24 07:23:20;;;;;;;55.70;21.92;;;;;;;6.07;58.20;100282.56;5226577;28;20654;-67
2022/03/24 07:26:10;;;;;;;56.75;23.00;;;;;;;6.48;57.55;100276.78;5225912;28;20130;-67
2022/03/24 07:29:00;;;;;;;48.95;22.48;;;;;;;7.68;54.76;100267.97;5226109;28;20075;-68
2022/03/24 07:31:50;;;;;;;42.95;20.67;;;;;;;7.76;53.83;100272.78;5226152;28;20060;-68
2022/03/24 07:34:40;;;;;;;47.03;20.48;;;;;;;9.43;50.77;100267.19;5225628;28;20446;-68
2022/03/24 07:37:31;;;;;;;51.42;21.52;;;;;;;9.80;49.25;100275.22;5225184;28;20645;-68
2022/03/24 07:40:22;;;;;;;46.83;23.08;;;;;;;10.81;46.31;100268.81;5210668;28;20104;-67
2022/03/24 07:43:12;;;;;;;55.55;22.48;;;;;;;11.68;44.03;100258.63;5226026;28;20052;-68
2022/03/24 07:46:02;;;;;;;42.50;20.50;;;;;;;12.32;42.43;100270.50;5210600;28;20060;-68
2022/03/24 07:48:53;;;;;;;47.10;21.98;;;;;;;12.16;43.02;100269.06;5226145;28;20526;-68
2022/03/24 07:51:43;;;;;;;40.10;20.38;;;;;;;12.91;41.56;100268.25;5225675;28;20052;-66
2022/03/24 07:54:52;;;;;;;43.25;22.08;;;;;;;13.53;40.73;100273.75;5225570;28;20159;-66
2022/03/24 07:57:42;;;;;;;42.85;22.58;;;;;;;13.98;41.68;100276.91;5225544;28;20055;-66
2022/03/24 08:00:32;;;;;;;39.72;21.65;;;;;;;14.51;37.81;100270.50;5225340;28;20102;-67
2022/03/24 08:03:22;;;;;;;39.92;21.35;;;;;;;14.97;36.06;100277.84;5225856;28;20439;-68
2022/03/24 08:06:15;;;;;;;43.20;23.13;;;;;;;15.39;36.76;100277.50;5225405;28;20064;-68
2022/03/24 08:09:05;;;;;;;40.65;22.40;;;;;;;15.51;35.98;100271.03;5210522;28;20499;-68
2022/03/24 08:11:55;;;;;;;51.53;23.27;;;;;;;16.03;34.50;100272.44;5223990;28;20053;-68
2022/03/24 08:14:45;;;;;;;42.08;23.38;;;;;;;15.78;35.52;100276.63;5225441;28;20193;-68
2022/03/24 08:17:35;;;;;;;39.90;22.33;;;;;;;15.98;35.02;100271.03;5225019;28;20139;-67
2022/03/24 08:20:26;;;;;;;51.47;23.73;;;;;;;16.87;32.28;100269.56;5224921;28;20065;-68
2022/03/24 08:23:16;;;;;;;42.60;22.60;;;;;;;16.42;35.91;100265.03;5225416;28;20083;-68
2022/03/24 08:26:07;;;;;;;44.70;23.85;;;;;;;16.78;33.83;100273.97;5224687;28;20056;-68
2022/03/24 08:28:57;;;;;;;44.70;22.35;;;;;;;16.62;34.44;100273.78;5224969;28;20059;-68
2022/03/24 08:31:48;;;;;;;36.90;22.83;;;;;;;17.19;33.44;100268.16;5225038;28;20072;-67
2022/03/24 08:34:39;;;;;;;36.33;21.75;;;;;;;17.38;32.92;100273.31;5225064;28;20720;-68
2022/03/24 08:37:29;;;;;;;45.80;24.13;;;;;;;17.91;30.65;100268.81;5225371;28;20415;-68
2022/03/24 08:40:25;;;;;;;41.83;22.33;;;;;;;17.53;32.96;100271.75;5225428;28;20522;-68
2022/03/24 08:43:15;;;;;;;47.00;23.25;;;;;;;18.07;30.83;100271.56;5225544;28;20052;-68
2022/03/24 08:46:08;;;;;;;42.50;22.33;;;;;;;18.18;30.02;100279.34;5225093;28;20080;-67
2022/03/24 08:48:59;;;;;;;39.47;23.67;;;;;;;18.18;31.91;100268.63;5225293;28;20063;-67
2022/03/24 08:51:49;;;;;;;42.47;23.90;;;;;;;18.26;32.02;100263.25;5225160;28;20071;-67
2022/03/24 08:54:38;;;;;;;42.88;23.58;;;;;;;19.19;28.09;100257.72;5225009;28;20495;-68
2022/03/24 08:57:29;;;;;;;44.42;24.45;;;;;;;18.50;30.67;100267.03;5224995;28;20442;-68
2022/03/24 09:00:19;;;;;;;42.28;22.92;;;;;;;18.64;30.27;100261.03;5224875;28;20499;-68
2022/03/24 09:03:09;;;;;;;41.28;23.90;;;;;;;18.58;30.88;100245.56;5224921;28;20057;-68
2022/03/24 09:05:59;;;;;;;44.70;23.88;;;;;;;19.23;30.73;100259.06;5223934;28;20696;-68
2022/03/24 09:08:49;;;;;;;36.63;23.13;;;;;;;19.39;29.21;100260.06;5223062;28;20059;-68
2022/03/24 09:11:40;;;;;;;41.58;24.63;;;;;;;19.50;29.20;100232.81;5222650;28;20526;-68
2022/03/24 09:14:30;;;;;;;44.10;24.65;;;;;;;19.27;30.45;100234.53;5223017;28;20131;-68
2022/03/24 09:17:20;;;;;;;41.95;24.38;;;;;;;19.38;30.19;100270.00;5208207;28;20099;-68
2022/03/24 09:20:13;;;;;;;44.13;25.52;;;;;;;19.38;30.23;100266.47;5222649;28;20083;-68
2022/03/24 09:23:02;;;;;;;48.30;25.90;;;;;;;19.74;31.54;100260.72;5222657;28;20157;-68
2022/03/24 09:25:54;;;;;;;47.88;25.92;;;;;;;20.04;30.12;100249.19;5222390;28;20076;-68
2022/03/24 09:29:04;;;;;;;48.47;27.00;;;;;;;19.45;29.34;100259.41;5222444;28;20056;-68
2022/03/24 09:31:55;;;;;;;50.08;26.75;;;;;;;19.97;28.56;100252.72;5222600;28;20118;-68
2022/03/24 09:34:45;;;;;;;49.40;27.00;;;;;;;19.80;28.14;100260.00;5222857;28;20843;-67
2022/03/24 09:37:38;;;;;;;53.58;27.60;;;;;;;20.15;28.29;100251.47;5222162;28;20048;-69
2022/03/24 09:40:28;;;;;;;48.13;27.98;;;;;;;20.05;28.06;100252.69;5222448;28;20738;-68
2022/03/24 09:43:20;;;;;;;44.00;27.30;;;;;;;19.88;29.39;100260.00;5222387;28;20565;-68
2022/03/24 09:46:10;;;;;;;45.83;29.17;;;;;;;19.99;27.77;100254.22;5222298;28;20407;-68
2022/03/24 09:49:00;;;;;;;51.28;29.58;;;;;;;20.01;28.85;100254.06;5222603;28;20045;-68
2022/03/24 09:51:50;;;;;;;46.83;29.08;;;;;;;19.77;28.55;100239.69;5221966;28;20486;-68
2022/03/24 09:54:47;;;;;;;45.53;28.77;;;;;;;21.27;29.37;100251.09;5222160;28;20637;-68
2022/03/24 09:57:37;;;;;;;48.00;29.20;;;;;;;21.43;29.88;100250.97;5221451;28;20247;-69
2022/03/24 10:00:47;;;;;;;48.50;27.45;;;;;;;21.11;29.05;100246.69;5222356;28;20130;-68
2022/03/24 10:03:37;;;;;;;44.15;26.92;;;;;;;20.81;26.05;100246.56;5222100;28;20095;-68
2022/03/24 10:06:28;;;;;;;50.50;27.55;;;;;;;20.45;27.59;100170.84;5208010;22;20041;-84
2022/03/24 10:09:37;;;;;;;50.00;27.42;;;;;;;21.43;27.58;100218.59;5185743;28;20057;-84
2022/03/24 10:12:33;;;;;;;46.15;26.58;;;;;;;21.58;25.87;100245.59;5186428;28;20096;-83
2022/03/24 10:15:23;;;;;;;52.40;27.75;;;;;;;20.79;27.90;100239.69;5185717;28;20054;-83
2022/03/24 10:18:16;;;;;;;46.40;26.98;;;;;;;20.92;24.79;100229.13;5185801;28;20060;-83
2022/03/24 10:21:12;;;;;;;38.30;25.30;;;;;;;21.55;24.62;100225.19;5186569;28;20046;-84
2022/03/24 10:24:10;;;;;;;37.05;23.23;;;;;;;21.67;22.70;100235.56;5171990;28;20230;-84
2022/03/24 10:27:02;;;;;;;38.00;24.13;;;;;;;21.33;24.09;100226.94;5172061;28;20054;-83
2022/03/24 10:29:57;;;;;;;43.55;25.00;;;;;;;19.83;26.06;100236.28;5185653;28;20046;-83
2022/03/24 10:32:56;;;;;;;39.70;23.70;;;;;;;21.01;25.94;100203.78;5189480;28;20058;-84
2022/03/24 10:35:46;;;;;;;43.20;24.95;;;;;;;20.86;24.85;100216.38;5192998;28;20131;-84
2022/03/24 10:38:45;;;;;;;36.10;23.42;;;;;;;22.12;23.84;100214.75;5190712;28;20453;-84
2022/03/24 10:41:38;;;;;;;40.50;24.20;;;;;;;22.25;23.87;100220.34;5191299;28;20053;-83
2022/03/24 10:44:29;;;;;;;41.22;24.63;;;;;;;22.08;22.99;100195.38;5192491;28;20058;-84
2022/03/24 10:47:38;;;;;;;39.30;23.50;;;;;;;22.17;23.03;100225.88;5191359;28;20054;-82
2022/03/24 10:50:39;;;;;;;41.95;24.00;;;;;;;20.72;26.29;100222.56;5191189;28;20109;-82
2022/03/24 10:53:38;;;;;;;42.80;22.20;;;;;;;19.67;26.41;100212.16;5194354;28;20144;-83
2022/03/24 10:56:36;;;;;;;39.15;23.25;;;;;;;20.44;25.45;100206.06;5190368;28;20788;-83
2022/03/24 10:59:33;;;;;;;43.28;22.98;;;;;;;20.86;26.46;100214.53;5185212;28;20578;-84
2022/03/24 11:02:23;;;;;;;39.45;23.65;;;;;;;20.37;27.38;100205.94;5173403;28;20048;-83
2022/03/24 11:05:13;;;;;;;42.85;24.27;;;;;;;20.67;28.04;100209.63;5187959;28;20079;-83
2022/03/24 11:08:06;;;;;;;40.08;23.33;;;;;;;20.71;26.47;100159.72;5188041;28;20315;-83
2022/03/24 11:10:56;;;;;;;37.50;22.92;;;;;;;20.73;26.92;100181.97;5177594;28;20057;-84
2022/03/24 11:13:52;;;;;;;37.15;23.13;;;;;;;20.96;26.55;100200.81;5189523;28;20104;-82
2022/03/24 11:16:43;;;;;;;40.67;21.55;;;;;;;19.89;24.20;100180.91;5188504;28;20057;-82
2022/03/24 11:19:34;;;;;;;38.65;21.88;;;;;;;19.71;25.13;100165.88;5186623;28;20072;-82
2022/03/24 11:22:38;;;;;;;34.63;22.73;;;;;;;20.96;23.29;100203.50;5187978;28;20461;-82
2022/03/24 11:25:29;;;;;;;42.05;21.92;;;;;;;20.32;26.80;100197.53;5173662;28;20463;-82
2022/03/24 11:28:21;;;;;;;35.58;22.40;;;;;;;20.70;26.01;100187.72;5186697;28;20176;-83
2022/03/24 11:31:14;;;;;;;34.10;20.90;;;;;;;20.88;23.88;100195.47;5178983;28;20418;-83
2022/03/24 11:34:04;;;;;;;34.05;21.52;;;;;;;21.22;24.53;100175.28;5193544;28;20061;-83
2022/03/24 11:36:55;;;;;;;36.63;20.05;;;;;;;21.18;26.58;100168.56;5193661;28;20480;-83
2022/03/24 11:40:04;;;;;;;37.40;20.65;;;;;;;20.85;23.28;100158.09;5192824;28;20479;-84
2022/03/24 11:43:03;;;;;;;31.20;19.40;;;;;;;21.39;23.74;100181.38;5193362;28;20046;-82
2022/03/24 11:46:02;;;;;;;29.40;19.00;;;;;;;21.10;25.25;100161.41;5194454;28;20054;-84
2022/03/24 11:49:18;;;;;;;29.05;19.40;;;;;;;21.02;24.20;100156.09;5202037;28;20096;-84
2022/03/24 11:52:08;;;;;;;32.88;19.40;;;;;;;20.54;23.78;100164.41;5195915;28;20050;-84
2022/03/24 11:54:58;;;;;;;34.67;20.02;;;;;;;20.49;25.06;100166.75;5196678;28;20117;-84
2022/03/24 11:58:01;;;;;;;27.25;19.23;;;;;;;20.68;22.70;100143.91;5196766;28;20073;-85
2022/03/24 12:00:51;;;;;;;28.85;18.75;;;;;;;20.57;23.13;100141.66;5197027;28;20054;-85
2022/03/24 12:03:46;;;;;;;30.30;18.00;;;;;;;19.78;23.65;100149.03;5196962;28;20085;-85
2022/03/24 12:06:43;;;;;;;26.05;18.50;;;;;;;20.41;25.62;100146.13;5197819;28;20057;-85
2022/03/24 12:09:53;;;;;;;34.33;19.08;;;;;;;20.58;22.79;100129.84;5198352;28;20087;-85
2022/03/24 12:13:01;;;;;;;32.95;19.13;;;;;;;21.09;25.03;100135.44;5183773;28;20057;-84
2022/03/24 12:16:27;;;;;;;34.13;19.17;;;;;;;21.02;23.57;100123.72;5195925;28;20050;-82
2022/03/24 12:19:36;;;;;;;31.98;17.42;;;;;;;20.35;23.77;100127.13;5174381;28;20104;-85
2022/03/24 12:22:26;;;;;;;28.58;17.20;;;;;;;20.61;22.42;100122.25;5198714;28;20056;-85
2022/03/24 12:25:22;;;;;;;28.63;18.02;;;;;;;19.68;23.85;100119.63;5197832;28;20077;-85
2022/03/24 12:28:27;;;;;;;31.98;17.50;;;;;;;20.32;23.48;100087.94;5198429;28;20115;-85
2022/03/24 12:31:17;;;;;;;34.67;17.23;;;;;;;20.25;23.65;100073.50;5183909;28;20058;-85
2022/03/24 12:34:14;;;;;;;31.65;18.60;;;;;;;20.51;23.36;100110.88;5196129;28;20050;-85
2022/03/24 12:37:23;;;;;;;26.75;17.23;;;;;;;20.10;22.63;100107.63;5198922;28;20054;-84
2022/03/24 12:40:13;;;;;;;29.27;17.17;;;;;;;18.97;23.42;100067.56;5202881;28;20069;-84
2022/03/24 12:43:03;;;;;;;32.67;17.65;;;;;;;19.49;24.21;100062.50;5188978;28;20104;-84
2022/03/24 12:46:20;;;;;;;25.35;17.15;;;;;;;20.49;24.85;100098.56;5197988;28;20608;-85
2022/03/24 12:49:10;;;;;;;30.20;18.80;;;;;;;19.93;23.34;100094.28;5199346;28;20101;-84
2022/03/24 12:52:10;;;;;;;29.52;17.80;;;;;;;20.13;23.64;100077.63;5206166;28;20117;-85
2022/03/24 12:55:00;;;;;;;26.50;17.30;;;;;;;20.19;24.94;100093.91;5192721;28;20056;-85
2022/03/24 12:57:56;;;;;;;27.85;16.48;;;;;;;20.64;23.93;100091.41;5182684;28;20120;-87
2022/03/24 13:00:48;;;;;;;28.98;16.20;;;;;;;20.86;23.48;100076.19;5193050;28;20503;-85
2022/03/24 13:03:39;;;;;;;30.98;17.25;;;;;;;20.71;22.02;100051.09;5192222;28;20060;-83
2022/03/24 13:06:30;;;;;;;27.80;17.40;;;;;;;20.42;23.21;100069.66;5176666;28;20061;-83
2022/03/24 13:09:22;;;;;;;26.95;16.67;;;;;;;20.25;23.64;100057.34;5191224;28;20057;-83